sensor_id;sensor_type;location;lat;lon;timestamp;temperature;humidity
49777;DHT22;35673;51.482;7.436;2023-02-01T00:01:09;5.70;99.90
49777;DHT22;35673;51.482;7.436;2023-02-01T00:03:35;5.80;99.90
49777;DHT22;35673;51.482;7.436;2023-02-01T00:06:00;5.70;99.90
49777;DHT22;35673;51.482;7.436;2023-02-01T00:08:26;5.80;99.90
49777;DHT22;35673;51.482;7.436;2023-02-01T00:11:02;5.80;99.90
49777;DHT22;35673;51.482;7.436;2023-02-01T00:13:29;5.80;99.90
49777;DHT22;35673;51.482;7.436;2023-02-01T00:15:55;5.80;99.90
49777;DHT22;35673;51.482;7.436;2023-02-01T00:18:20;5.80;99.90
49777;DHT22;35673;51.482;7.436;2023-02-01T00:20:46;5.90;99.90
49777;DHT22;35673;51.482;7.436;2023-02-01T00:23:12;5.90;99.90
49777;DHT22;35673;51.482;7.436;2023-02-01T00:25:37;5.90;99.90
49777;DHT22;35673;51.482;7.436;2023-02-01T00:28:02;5.90;99.90
49777;DHT22;35673;51.482;7.436;2023-02-01T00:30:28;5.90;99.90
49777;DHT22;35673;51.482;7.436;2023-02-01T00:32:53;5.90;99.90
49777;DHT22;35673;51.482;7.436;2023-02-01T00:35:19;5.90;99.90
49777;DHT22;35673;51.482;7.436;2023-02-01T00:37:44;5.90;99.90
49777;DHT22;35673;51.482;7.436;2023-02-01T00:40:10;5.90;99.90
49777;DHT22;35673;51.482;7.436;2023-02-01T00:42:35;5.90;99.90
49777;DHT22;35673;51.482;7.436;2023-02-01T00:45:01;5.90;99.90
49777;DHT22;35673;51.482;7.436;2023-02-01T00:47:27;5.90;99.90
49777;DHT22;35673;51.482;7.436;2023-02-01T00:49:52;5.90;99.90
49777;DHT22;35673;51.482;7.436;2023-02-01T00:52:17;5.90;99.90
49777;DHT22;35673;51.482;7.436;2023-02-01T00:54:43;5.90;99.90
49777;DHT22;35673;51.482;7.436;2023-02-01T00:57:08;5.90;99.90
49777;DHT22;35673;51.482;7.436;2023-02-01T00:59:34;5.90;99.90
49777;DHT22;35673;51.482;7.436;2023-02-01T01:01:59;5.90;99.90
49777;DHT22;35673;51.482;7.436;2023-02-01T01:04:25;5.90;99.90
49777;DHT22;35673;51.482;7.436;2023-02-01T01:06:50;5.90;99.90
49777;DHT22;35673;51.482;7.436;2023-02-01T01:09:16;5.90;99.90
49777;DHT22;35673;51.482;7.436;2023-02-01T01:11:41;5.90;99.90
49777;DHT22;35673;51.482;7.436;2023-02-01T01:14:07;5.90;99.90
49777;DHT22;35673;51.482;7.436;2023-02-01T01:16:33;6.00;99.90
49777;DHT22;35673;51.482;7.436;2023-02-01T01:18:59;6.00;99.90
49777;DHT22;35673;51.482;7.436;2023-02-01T01:21:25;6.00;99.90
49777;DHT22;35673;51.482;7.436;2023-02-01T01:23:51;6.00;99.90
49777;DHT22;35673;51.482;7.436;2023-02-01T01:26:17;6.00;99.90
49777;DHT22;35673;51.482;7.436;2023-02-01T01:28:43;5.90;99.90
49777;DHT22;35673;51.482;7.436;2023-02-01T01:31:09;5.90;99.90
49777;DHT22;35673;51.482;7.436;2023-02-01T01:33:35;5.90;99.90
49777;DHT22;35673;51.482;7.436;2023-02-01T01:36:01;5.90;99.90
49777;DHT22;35673;51.482;7.436;2023-02-01T01:38:26;5.90;99.90
49777;DHT22;35673;51.482;7.436;2023-02-01T01:40:51;5.90;99.90
49777;DHT22;35673;51.482;7.436;2023-02-01T01:43:18;5.90;99.90
49777;DHT22;35673;51.482;7.436;2023-02-01T01:45:44;5.90;99.90
49777;DHT22;35673;51.482;7.436;2023-02-01T01:50:50;5.80;99.90
49777;DHT22;35673;51.482;7.436;2023-02-01T01:53:16;5.80;99.90
49777;DHT22;35673;51.482;7.436;2023-02-01T01:55:43;5.80;99.90
49777;DHT22;35673;51.482;7.436;2023-02-01T01:58:14;5.80;99.90
49777;DHT22;35673;51.482;7.436;2023-02-01T02:00:42;5.80;99.90
49777;DHT22;35673;51.482;7.436;2023-02-01T02:03:13;5.70;99.90
49777;DHT22;35673;51.482;7.436;2023-02-01T02:05:39;5.80;99.90
49777;DHT22;35673;51.482;7.436;2023-02-01T02:08:17;5.80;99.90
49777;DHT22;35673;51.482;7.436;2023-02-01T02:10:46;5.70;99.90
49777;DHT22;35673;51.482;7.436;2023-02-01T02:13:33;5.70;99.90
49777;DHT22;35673;51.482;7.436;2023-02-01T02:18:27;5.80;99.90
49777;DHT22;35673;51.482;7.436;2023-02-01T02:21:01;5.80;99.90
49777;DHT22;35673;51.482;7.436;2023-02-01T02:36:35;5.80;99.90
49777;DHT22;35673;51.482;7.436;2023-02-01T02:39:07;5.80;99.90
49777;DHT22;35673;51.482;7.436;2023-02-01T02:41:38;5.80;99.90
49777;DHT22;35673;51.482;7.436;2023-02-01T02:47:16;5.80;99.90
49777;DHT22;35673;51.482;7.436;2023-02-01T02:52:39;5.80;99.90
49777;DHT22;35673;51.482;7.436;2023-02-01T02:55:26;5.80;99.90
49777;DHT22;35673;51.482;7.436;2023-02-01T02:57:52;5.80;99.90
49777;DHT22;35673;51.482;7.436;2023-02-01T03:00:36;5.80;99.90
49777;DHT22;35673;51.482;7.436;2023-02-01T03:03:21;5.80;99.90
49777;DHT22;35673;51.482;7.436;2023-02-01T03:06:05;5.80;99.90
49777;DHT22;35673;51.482;7.436;2023-02-01T03:08:36;5.80;99.90
49777;DHT22;35673;51.482;7.436;2023-02-01T03:16:13;5.70;99.90
49777;DHT22;35673;51.482;7.436;2023-02-01T03:18:49;5.70;99.90
49777;DHT22;35673;51.482;7.436;2023-02-01T03:21:16;5.80;99.90
49777;DHT22;35673;51.482;7.436;2023-02-01T03:23:44;5.70;99.90
49777;DHT22;35673;51.482;7.436;2023-02-01T03:26:11;5.70;99.90
49777;DHT22;35673;51.482;7.436;2023-02-01T03:28:38;5.70;99.90
49777;DHT22;35673;51.482;7.436;2023-02-01T03:31:08;5.70;99.90
49777;DHT22;35673;51.482;7.436;2023-02-01T03:33:33;5.70;99.90
49777;DHT22;35673;51.482;7.436;2023-02-01T03:36:09;5.70;99.90
49777;DHT22;35673;51.482;7.436;2023-02-01T03:43:55;5.70;99.90
49777;DHT22;35673;51.482;7.436;2023-02-01T03:46:24;5.70;99.90
49777;DHT22;35673;51.482;7.436;2023-02-01T03:48:51;5.60;99.90
49777;DHT22;35673;51.482;7.436;2023-02-01T03:51:19;5.70;99.90
49777;DHT22;35673;51.482;7.436;2023-02-01T03:53:45;5.60;99.90
49777;DHT22;35673;51.482;7.436;2023-02-01T03:56:13;5.60;99.90
49777;DHT22;35673;51.482;7.436;2023-02-01T03:58:53;5.60;99.90
49777;DHT22;35673;51.482;7.436;2023-02-01T04:01:26;5.60;99.90
49777;DHT22;35673;51.482;7.436;2023-02-01T04:03:51;5.60;99.90
49777;DHT22;35673;51.482;7.436;2023-02-01T04:06:17;5.60;99.90
49777;DHT22;35673;51.482;7.436;2023-02-01T04:08:42;5.60;99.90
49777;DHT22;35673;51.482;7.436;2023-02-01T04:11:08;5.60;99.90
49777;DHT22;35673;51.482;7.436;2023-02-01T04:13:33;5.60;99.90
49777;DHT22;35673;51.482;7.436;2023-02-01T04:15:59;5.70;99.90
49777;DHT22;35673;51.482;7.436;2023-02-01T04:18:24;5.70;99.90
49777;DHT22;35673;51.482;7.436;2023-02-01T04:20:50;5.70;99.90
49777;DHT22;35673;51.482;7.436;2023-02-01T04:23:15;5.70;99.90
49777;DHT22;35673;51.482;7.436;2023-02-01T04:25:41;5.80;99.90
49777;DHT22;35673;51.482;7.436;2023-02-01T04:28:06;5.70;99.90
49777;DHT22;35673;51.482;7.436;2023-02-01T04:30:32;5.70;99.90
49777;DHT22;35673;51.482;7.436;2023-02-01T04:32:57;5.70;99.90
49777;DHT22;35673;51.482;7.436;2023-02-01T04:35:23;5.80;99.90
49777;DHT22;35673;51.482;7.436;2023-02-01T04:37:48;5.80;99.90
49777;DHT22;35673;51.482;7.436;2023-02-01T04:40:14;5.70;99.90
49777;DHT22;35673;51.482;7.436;2023-02-01T04:42:39;5.80;99.90
49777;DHT22;35673;51.482;7.436;2023-02-01T04:45:05;5.70;99.90
49777;DHT22;35673;51.482;7.436;2023-02-01T04:47:31;5.70;99.90
49777;DHT22;35673;51.482;7.436;2023-02-01T04:49:56;5.70;99.90
49777;DHT22;35673;51.482;7.436;2023-02-01T04:52:22;5.80;99.90
49777;DHT22;35673;51.482;7.436;2023-02-01T04:54:47;5.70;99.90
49777;DHT22;35673;51.482;7.436;2023-02-01T04:57:13;5.70;99.90
49777;DHT22;35673;51.482;7.436;2023-02-01T04:59:40;5.70;99.90
49777;DHT22;35673;51.482;7.436;2023-02-01T05:02:05;5.70;99.90
49777;DHT22;35673;51.482;7.436;2023-02-01T05:04:31;5.70;99.90
49777;DHT22;35673;51.482;7.436;2023-02-01T05:06:56;5.80;99.90
49777;DHT22;35673;51.482;7.436;2023-02-01T05:09:22;5.80;99.90
49777;DHT22;35673;51.482;7.436;2023-02-01T05:11:47;5.80;99.90
49777;DHT22;35673;51.482;7.436;2023-02-01T05:14:31;5.70;99.90
49777;DHT22;35673;51.482;7.436;2023-02-01T05:16:57;5.80;99.90
49777;DHT22;35673;51.482;7.436;2023-02-01T05:19:22;5.80;99.90
49777;DHT22;35673;51.482;7.436;2023-02-01T05:21:48;5.70;99.90
49777;DHT22;35673;51.482;7.436;2023-02-01T05:24:13;5.80;99.90
49777;DHT22;35673;51.482;7.436;2023-02-01T05:26:40;5.70;99.90
49777;DHT22;35673;51.482;7.436;2023-02-01T05:29:05;5.70;99.90
49777;DHT22;35673;51.482;7.436;2023-02-01T05:31:31;5.70;99.90
49777;DHT22;35673;51.482;7.436;2023-02-01T05:33:56;5.70;99.90
49777;DHT22;35673;51.482;7.436;2023-02-01T05:36:22;5.70;99.90
49777;DHT22;35673;51.482;7.436;2023-02-01T05:38:48;5.70;99.90
49777;DHT22;35673;51.482;7.436;2023-02-01T05:41:13;5.70;99.90
49777;DHT22;35673;51.482;7.436;2023-02-01T05:43:38;5.70;99.90
49777;DHT22;35673;51.482;7.436;2023-02-01T05:46:04;5.70;99.90
49777;DHT22;35673;51.482;7.436;2023-02-01T05:48:29;5.70;99.90
49777;DHT22;35673;51.482;7.436;2023-02-01T05:50:55;5.70;99.90
49777;DHT22;35673;51.482;7.436;2023-02-01T05:53:20;5.70;99.90
49777;DHT22;35673;51.482;7.436;2023-02-01T05:55:46;5.70;99.90
49777;DHT22;35673;51.482;7.436;2023-02-01T05:58:11;5.70;99.90
49777;DHT22;35673;51.482;7.436;2023-02-01T06:00:37;5.70;99.90
49777;DHT22;35673;51.482;7.436;2023-02-01T06:03:03;5.60;99.90
49777;DHT22;35673;51.482;7.436;2023-02-01T06:05:28;5.60;99.90
49777;DHT22;35673;51.482;7.436;2023-02-01T06:07:54;5.60;99.90
49777;DHT22;35673;51.482;7.436;2023-02-01T06:10:19;5.50;99.90
49777;DHT22;35673;51.482;7.436;2023-02-01T06:12:45;5.50;99.90
49777;DHT22;35673;51.482;7.436;2023-02-01T06:15:11;5.60;99.90
49777;DHT22;35673;51.482;7.436;2023-02-01T06:17:36;5.50;99.90
49777;DHT22;35673;51.482;7.436;2023-02-01T06:20:03;5.60;99.90
49777;DHT22;35673;51.482;7.436;2023-02-01T06:22:29;5.60;99.90
49777;DHT22;35673;51.482;7.436;2023-02-01T06:24:54;5.60;99.90
49777;DHT22;35673;51.482;7.436;2023-02-01T06:27:20;5.60;99.90
49777;DHT22;35673;51.482;7.436;2023-02-01T06:29:45;5.60;99.90
49777;DHT22;35673;51.482;7.436;2023-02-01T06:32:11;5.60;99.90
49777;DHT22;35673;51.482;7.436;2023-02-01T06:34:36;5.70;99.90
49777;DHT22;35673;51.482;7.436;2023-02-01T06:37:04;5.70;99.90
49777;DHT22;35673;51.482;7.436;2023-02-01T06:39:30;5.70;99.90
49777;DHT22;35673;51.482;7.436;2023-02-01T06:41:55;5.70;99.90
49777;DHT22;35673;51.482;7.436;2023-02-01T06:44:21;5.70;99.90
49777;DHT22;35673;51.482;7.436;2023-02-01T06:46:46;5.70;99.90
49777;DHT22;35673;51.482;7.436;2023-02-01T06:49:12;5.70;99.90
49777;DHT22;35673;51.482;7.436;2023-02-01T06:51:37;5.70;99.90
49777;DHT22;35673;51.482;7.436;2023-02-01T06:54:03;5.70;99.90
49777;DHT22;35673;51.482;7.436;2023-02-01T06:56:28;5.70;99.90
49777;DHT22;35673;51.482;7.436;2023-02-01T06:58:54;5.70;99.90
49777;DHT22;35673;51.482;7.436;2023-02-01T07:01:19;5.70;99.90
49777;DHT22;35673;51.482;7.436;2023-02-01T07:03:48;5.70;99.90
49777;DHT22;35673;51.482;7.436;2023-02-01T07:06:15;5.80;99.90
49777;DHT22;35673;51.482;7.436;2023-02-01T07:08:40;5.80;99.90
49777;DHT22;35673;51.482;7.436;2023-02-01T07:11:07;5.80;99.90
49777;DHT22;35673;51.482;7.436;2023-02-01T07:13:32;5.80;99.90
49777;DHT22;35673;51.482;7.436;2023-02-01T07:15:59;5.70;99.90
49777;DHT22;35673;51.482;7.436;2023-02-01T07:18:24;5.80;99.90
49777;DHT22;35673;51.482;7.436;2023-02-01T07:20:50;5.80;99.90
49777;DHT22;35673;51.482;7.436;2023-02-01T07:23:16;5.80;99.90
49777;DHT22;35673;51.482;7.436;2023-02-01T07:25:42;5.70;99.90
49777;DHT22;35673;51.482;7.436;2023-02-01T07:28:07;5.80;99.90
49777;DHT22;35673;51.482;7.436;2023-02-01T07:30:33;5.70;99.90
49777;DHT22;35673;51.482;7.436;2023-02-01T07:32:58;5.80;99.90
49777;DHT22;35673;51.482;7.436;2023-02-01T07:35:29;5.80;99.90
49777;DHT22;35673;51.482;7.436;2023-02-01T07:37:55;5.80;99.90
49777;DHT22;35673;51.482;7.436;2023-02-01T07:40:22;5.80;99.90
49777;DHT22;35673;51.482;7.436;2023-02-01T07:42:56;5.90;99.90
49777;DHT22;35673;51.482;7.436;2023-02-01T07:45:22;5.80;99.90
49777;DHT22;35673;51.482;7.436;2023-02-01T07:47:48;5.90;99.90
49777;DHT22;35673;51.482;7.436;2023-02-01T07:50:13;5.90;99.90
49777;DHT22;35673;51.482;7.436;2023-02-01T07:52:39;5.90;99.90
49777;DHT22;35673;51.482;7.436;2023-02-01T07:55:06;5.90;99.90
49777;DHT22;35673;51.482;7.436;2023-02-01T07:57:31;5.90;99.90
49777;DHT22;35673;51.482;7.436;2023-02-01T07:59:57;5.90;99.90
49777;DHT22;35673;51.482;7.436;2023-02-01T08:02:41;5.90;99.90
49777;DHT22;35673;51.482;7.436;2023-02-01T08:05:06;5.90;99.90
49777;DHT22;35673;51.482;7.436;2023-02-01T08:07:32;5.90;99.90
49777;DHT22;35673;51.482;7.436;2023-02-01T08:09:58;6.00;99.90
49777;DHT22;35673;51.482;7.436;2023-02-01T08:12:23;6.00;99.90
49777;DHT22;35673;51.482;7.436;2023-02-01T08:14:49;6.00;99.90
49777;DHT22;35673;51.482;7.436;2023-02-01T08:17:14;6.00;99.90
49777;DHT22;35673;51.482;7.436;2023-02-01T08:19:40;6.00;99.90
49777;DHT22;35673;51.482;7.436;2023-02-01T08:22:05;6.00;99.90
49777;DHT22;35673;51.482;7.436;2023-02-01T08:24:32;6.00;99.90
49777;DHT22;35673;51.482;7.436;2023-02-01T08:26:58;6.00;99.90
49777;DHT22;35673;51.482;7.436;2023-02-01T08:29:25;6.00;99.90
49777;DHT22;35673;51.482;7.436;2023-02-01T08:31:50;6.00;99.90
49777;DHT22;35673;51.482;7.436;2023-02-01T08:34:17;6.00;99.90
49777;DHT22;35673;51.482;7.436;2023-02-01T08:36:42;6.00;99.90
49777;DHT22;35673;51.482;7.436;2023-02-01T08:39:08;6.10;99.90
49777;DHT22;35673;51.482;7.436;2023-02-01T08:41:36;6.10;99.90
49777;DHT22;35673;51.482;7.436;2023-02-01T08:44:02;6.10;99.90
49777;DHT22;35673;51.482;7.436;2023-02-01T08:46:27;6.10;99.90
49777;DHT22;35673;51.482;7.436;2023-02-01T08:48:53;6.10;99.90
49777;DHT22;35673;51.482;7.436;2023-02-01T08:51:19;6.10;99.90
49777;DHT22;35673;51.482;7.436;2023-02-01T08:53:45;6.20;99.90
49777;DHT22;35673;51.482;7.436;2023-02-01T08:56:11;6.20;99.90
49777;DHT22;35673;51.482;7.436;2023-02-01T08:58:37;6.20;99.90
49777;DHT22;35673;51.482;7.436;2023-02-01T09:01:03;6.30;99.90
49777;DHT22;35673;51.482;7.436;2023-02-01T09:03:29;6.30;99.90
49777;DHT22;35673;51.482;7.436;2023-02-01T09:06:04;6.30;99.90
49777;DHT22;35673;51.482;7.436;2023-02-01T09:08:30;6.30;99.90
49777;DHT22;35673;51.482;7.436;2023-02-01T09:11:00;6.30;99.90
49777;DHT22;35673;51.482;7.436;2023-02-01T09:13:25;6.20;99.90
49777;DHT22;35673;51.482;7.436;2023-02-01T09:15:51;6.30;99.90
49777;DHT22;35673;51.482;7.436;2023-02-01T09:18:17;6.30;99.90
49777;DHT22;35673;51.482;7.436;2023-02-01T09:20:42;6.20;99.90
49777;DHT22;35673;51.482;7.436;2023-02-01T09:23:08;6.20;99.90
49777;DHT22;35673;51.482;7.436;2023-02-01T09:25:33;6.30;99.90
49777;DHT22;35673;51.482;7.436;2023-02-01T09:27:59;6.30;99.90
49777;DHT22;35673;51.482;7.436;2023-02-01T09:30:24;6.30;99.90
49777;DHT22;35673;51.482;7.436;2023-02-01T09:32:50;6.40;99.90
49777;DHT22;35673;51.482;7.436;2023-02-01T09:35:15;6.40;99.90
49777;DHT22;35673;51.482;7.436;2023-02-01T09:37:41;6.40;99.90
49777;DHT22;35673;51.482;7.436;2023-02-01T09:40:09;6.40;99.90
49777;DHT22;35673;51.482;7.436;2023-02-01T09:42:42;6.30;99.90
49777;DHT22;35673;51.482;7.436;2023-02-01T09:45:14;6.30;99.90
49777;DHT22;35673;51.482;7.436;2023-02-01T09:47:47;6.40;99.90
49777;DHT22;35673;51.482;7.436;2023-02-01T09:50:18;6.40;99.90
49777;DHT22;35673;51.482;7.436;2023-02-01T09:52:56;6.50;99.90
49777;DHT22;35673;51.482;7.436;2023-02-01T09:55:25;6.50;99.90
49777;DHT22;35673;51.482;7.436;2023-02-01T09:57:58;6.50;99.90
49777;DHT22;35673;51.482;7.436;2023-02-01T10:00:26;6.50;99.90
49777;DHT22;35673;51.482;7.436;2023-02-01T10:02:53;6.50;99.90
49777;DHT22;35673;51.482;7.436;2023-02-01T10:05:34;6.50;99.90
49777;DHT22;35673;51.482;7.436;2023-02-01T10:10:52;6.50;99.90
49777;DHT22;35673;51.482;7.436;2023-02-01T10:13:41;6.50;99.90
49777;DHT22;35673;51.482;7.436;2023-02-01T10:18:40;6.50;99.90
49777;DHT22;35673;51.482;7.436;2023-02-01T10:28:49;6.60;99.90
49777;DHT22;35673;51.482;7.436;2023-02-01T10:31:15;6.60;99.90
49777;DHT22;35673;51.482;7.436;2023-02-01T10:33:44;6.60;99.90
49777;DHT22;35673;51.482;7.436;2023-02-01T10:36:15;6.60;99.90
49777;DHT22;35673;51.482;7.436;2023-02-01T10:38:42;6.60;99.90
49777;DHT22;35673;51.482;7.436;2023-02-01T10:41:21;6.60;99.90
49777;DHT22;35673;51.482;7.436;2023-02-01T10:43:51;6.60;99.90
49777;DHT22;35673;51.482;7.436;2023-02-01T10:46:18;6.60;99.90
49777;DHT22;35673;51.482;7.436;2023-02-01T10:48:43;6.60;99.90
49777;DHT22;35673;51.482;7.436;2023-02-01T10:51:21;6.60;99.90
49777;DHT22;35673;51.482;7.436;2023-02-01T10:53:55;6.60;99.90
49777;DHT22;35673;51.482;7.436;2023-02-01T10:56:26;6.60;99.90
49777;DHT22;35673;51.482;7.436;2023-02-01T10:58:59;6.60;99.90
49777;DHT22;35673;51.482;7.436;2023-02-01T11:01:28;6.70;99.90
49777;DHT22;35673;51.482;7.436;2023-02-01T11:04:00;6.60;99.90
49777;DHT22;35673;51.482;7.436;2023-02-01T11:08:52;6.60;99.90
49777;DHT22;35673;51.482;7.436;2023-02-01T11:11:18;6.60;99.90
49777;DHT22;35673;51.482;7.436;2023-02-01T11:13:44;6.60;99.90
49777;DHT22;35673;51.482;7.436;2023-02-01T11:16:11;6.60;99.90
49777;DHT22;35673;51.482;7.436;2023-02-01T11:18:37;6.60;99.90
49777;DHT22;35673;51.482;7.436;2023-02-01T11:21:06;6.60;99.90
49777;DHT22;35673;51.482;7.436;2023-02-01T11:23:33;6.60;99.90
49777;DHT22;35673;51.482;7.436;2023-02-01T11:26:00;6.60;99.90
49777;DHT22;35673;51.482;7.436;2023-02-01T11:28:31;6.60;99.90
49777;DHT22;35673;51.482;7.436;2023-02-01T11:30:58;6.70;99.90
49777;DHT22;35673;51.482;7.436;2023-02-01T11:33:26;6.70;99.90
49777;DHT22;35673;51.482;7.436;2023-02-01T11:35:55;6.70;99.90
49777;DHT22;35673;51.482;7.436;2023-02-01T11:38:26;6.70;99.90
49777;DHT22;35673;51.482;7.436;2023-02-01T11:40:52;6.70;99.90
49777;DHT22;35673;51.482;7.436;2023-02-01T11:45:53;6.70;99.90
49777;DHT22;35673;51.482;7.436;2023-02-01T11:48:18;6.70;99.90
49777;DHT22;35673;51.482;7.436;2023-02-01T11:50:46;6.70;99.90
49777;DHT22;35673;51.482;7.436;2023-02-01T11:55:52;6.80;99.90
49777;DHT22;35673;51.482;7.436;2023-02-01T12:08:27;6.70;99.90
49777;DHT22;35673;51.482;7.436;2023-02-01T12:13:52;6.40;99.90
49777;DHT22;35673;51.482;7.436;2023-02-01T12:16:19;6.20;99.90
49777;DHT22;35673;51.482;7.436;2023-02-01T12:19:03;6.10;99.90
49777;DHT22;35673;51.482;7.436;2023-02-01T12:29:27;5.90;99.90
49777;DHT22;35673;51.482;7.436;2023-02-01T12:32:34;6.00;99.90
49777;DHT22;35673;51.482;7.436;2023-02-01T12:34:53;6.00;99.90
49777;DHT22;35673;51.482;7.436;2023-02-01T12:42:26;6.10;99.90
49777;DHT22;35673;51.482;7.436;2023-02-01T12:47:41;6.10;99.90
49777;DHT22;35673;51.482;7.436;2023-02-01T12:50:25;6.20;99.90
49777;DHT22;35673;51.482;7.436;2023-02-01T12:52:52;6.20;99.90
49777;DHT22;35673;51.482;7.436;2023-02-01T12:55:28;6.20;99.90
49777;DHT22;35673;51.482;7.436;2023-02-01T12:58:11;6.30;99.90
49777;DHT22;35673;51.482;7.436;2023-02-01T13:00:43;6.30;99.90
49777;DHT22;35673;51.482;7.436;2023-02-01T13:05:44;6.40;99.90
49777;DHT22;35673;51.482;7.436;2023-02-01T13:08:14;6.40;99.90
49777;DHT22;35673;51.482;7.436;2023-02-01T13:10:48;6.40;99.90
49777;DHT22;35673;51.482;7.436;2023-02-01T13:15:49;6.50;99.90
49777;DHT22;35673;51.482;7.436;2023-02-01T13:18:18;6.50;99.90
49777;DHT22;35673;51.482;7.436;2023-02-01T13:20:53;6.50;99.90
49777;DHT22;35673;51.482;7.436;2023-02-01T13:23:25;6.40;99.90
49777;DHT22;35673;51.482;7.436;2023-02-01T13:25:52;6.40;99.90
49777;DHT22;35673;51.482;7.436;2023-02-01T13:28:20;6.40;99.90
49777;DHT22;35673;51.482;7.436;2023-02-01T13:33:37;6.40;99.90
49777;DHT22;35673;51.482;7.436;2023-02-01T13:41:27;6.50;99.90
49777;DHT22;35673;51.482;7.436;2023-02-01T13:44:08;6.50;99.90
49777;DHT22;35673;51.482;7.436;2023-02-01T13:46:39;6.60;99.90
49777;DHT22;35673;51.482;7.436;2023-02-01T13:49:06;6.60;99.90
49777;DHT22;35673;51.482;7.436;2023-02-01T13:51:37;6.60;99.90
49777;DHT22;35673;51.482;7.436;2023-02-01T13:54:03;6.70;99.90
49777;DHT22;35673;51.482;7.436;2023-02-01T13:56:32;6.70;99.90
49777;DHT22;35673;51.482;7.436;2023-02-01T13:59:35;6.70;99.90
49777;DHT22;35673;51.482;7.436;2023-02-01T14:01:49;6.80;99.90
49777;DHT22;35673;51.482;7.436;2023-02-01T14:06:59;6.80;99.90
49777;DHT22;35673;51.482;7.436;2023-02-01T14:09:32;6.80;99.90
49777;DHT22;35673;51.482;7.436;2023-02-01T14:12:40;6.90;99.90
49777;DHT22;35673;51.482;7.436;2023-02-01T14:14:44;6.90;99.90
49777;DHT22;35673;51.482;7.436;2023-02-01T14:19:35;7.00;99.90
49777;DHT22;35673;51.482;7.436;2023-02-01T14:25:02;7.10;99.90
49777;DHT22;35673;51.482;7.436;2023-02-01T14:27:28;7.00;99.90
49777;DHT22;35673;51.482;7.436;2023-02-01T14:29:59;7.10;99.90
49777;DHT22;35673;51.482;7.436;2023-02-01T14:32:31;7.10;99.90
49777;DHT22;35673;51.482;7.436;2023-02-01T14:35:02;7.10;99.90
49777;DHT22;35673;51.482;7.436;2023-02-01T14:37:29;7.10;99.90
49777;DHT22;35673;51.482;7.436;2023-02-01T14:40:03;7.10;99.90
49777;DHT22;35673;51.482;7.436;2023-02-01T14:47:44;7.00;99.90
49777;DHT22;35673;51.482;7.436;2023-02-01T14:50:13;7.00;99.90
49777;DHT22;35673;51.482;7.436;2023-02-01T14:52:44;7.00;99.90
49777;DHT22;35673;51.482;7.436;2023-02-01T14:55:13;7.10;99.90
49777;DHT22;35673;51.482;7.436;2023-02-01T14:57:39;7.10;99.90
49777;DHT22;35673;51.482;7.436;2023-02-01T15:00:20;7.10;99.90
49777;DHT22;35673;51.482;7.436;2023-02-01T15:02:46;7.20;99.90
49777;DHT22;35673;51.482;7.436;2023-02-01T15:05:25;7.20;99.90
49777;DHT22;35673;51.482;7.436;2023-02-01T15:07:51;7.20;99.90
49777;DHT22;35673;51.482;7.436;2023-02-01T15:10:18;7.20;99.90
49777;DHT22;35673;51.482;7.436;2023-02-01T15:12:45;7.20;99.90
49777;DHT22;35673;51.482;7.436;2023-02-01T15:17:48;7.20;99.90
49777;DHT22;35673;51.482;7.436;2023-02-01T15:20:15;7.20;99.90
49777;DHT22;35673;51.482;7.436;2023-02-01T15:22:41;7.20;99.90
49777;DHT22;35673;51.482;7.436;2023-02-01T15:25:20;7.30;99.90
49777;DHT22;35673;51.482;7.436;2023-02-01T15:27:46;7.20;99.90
49777;DHT22;35673;51.482;7.436;2023-02-01T15:30:19;7.20;99.90
49777;DHT22;35673;51.482;7.436;2023-02-01T15:32:45;7.20;99.90
49777;DHT22;35673;51.482;7.436;2023-02-01T15:38:17;7.10;99.90
49777;DHT22;35673;51.482;7.436;2023-02-01T15:40:52;7.10;99.90
49777;DHT22;35673;51.482;7.436;2023-02-01T15:43:18;7.20;99.90
49777;DHT22;35673;51.482;7.436;2023-02-01T15:45:44;7.20;99.90
49777;DHT22;35673;51.482;7.436;2023-02-01T15:48:14;7.20;99.90
49777;DHT22;35673;51.482;7.436;2023-02-01T15:50:42;7.30;99.90
49777;DHT22;35673;51.482;7.436;2023-02-01T15:53:09;7.30;99.90
49777;DHT22;35673;51.482;7.436;2023-02-01T15:55:40;7.40;99.90
49777;DHT22;35673;51.482;7.436;2023-02-01T15:58:07;7.40;99.90
49777;DHT22;35673;51.482;7.436;2023-02-01T16:00:43;7.40;99.90
49777;DHT22;35673;51.482;7.436;2023-02-01T16:03:23;7.40;99.90
49777;DHT22;35673;51.482;7.436;2023-02-01T16:05:54;7.40;99.90
49777;DHT22;35673;51.482;7.436;2023-02-01T16:08:21;7.40;99.90
49777;DHT22;35673;51.482;7.436;2023-02-01T16:10:47;7.40;99.90
49777;DHT22;35673;51.482;7.436;2023-02-01T16:13:14;7.40;99.90
49777;DHT22;35673;51.482;7.436;2023-02-01T16:15:40;7.40;99.90
49777;DHT22;35673;51.482;7.436;2023-02-01T16:18:06;7.40;99.90
49777;DHT22;35673;51.482;7.436;2023-02-01T16:20:35;7.40;99.90
49777;DHT22;35673;51.482;7.436;2023-02-01T16:23:01;7.40;99.90
49777;DHT22;35673;51.482;7.436;2023-02-01T16:25:27;7.50;99.90
49777;DHT22;35673;51.482;7.436;2023-02-01T16:27:52;7.50;99.90
49777;DHT22;35673;51.482;7.436;2023-02-01T16:30:18;7.40;99.90
49777;DHT22;35673;51.482;7.436;2023-02-01T16:32:49;7.40;99.90
49777;DHT22;35673;51.482;7.436;2023-02-01T16:35:16;7.50;99.90
49777;DHT22;35673;51.482;7.436;2023-02-01T16:37:44;7.40;99.90
49777;DHT22;35673;51.482;7.436;2023-02-01T16:40:14;7.50;99.90
49777;DHT22;35673;51.482;7.436;2023-02-01T16:42:39;7.50;99.90
49777;DHT22;35673;51.482;7.436;2023-02-01T16:45:06;7.50;99.90
49777;DHT22;35673;51.482;7.436;2023-02-01T16:47:32;7.40;99.90
49777;DHT22;35673;51.482;7.436;2023-02-01T16:49:58;7.40;99.90
49777;DHT22;35673;51.482;7.436;2023-02-01T16:52:25;7.30;99.90
49777;DHT22;35673;51.482;7.436;2023-02-01T16:54:51;7.20;99.90
49777;DHT22;35673;51.482;7.436;2023-02-01T16:57:17;6.90;99.90
49777;DHT22;35673;51.482;7.436;2023-02-01T16:59:43;6.70;99.90
49777;DHT22;35673;51.482;7.436;2023-02-01T17:02:19;6.50;99.90
49777;DHT22;35673;51.482;7.436;2023-02-01T17:04:45;6.40;99.90
49777;DHT22;35673;51.482;7.436;2023-02-01T17:07:11;6.40;99.90
49777;DHT22;35673;51.482;7.436;2023-02-01T17:09:38;6.30;99.90
49777;DHT22;35673;51.482;7.436;2023-02-01T17:12:04;6.30;99.90
49777;DHT22;35673;51.482;7.436;2023-02-01T17:14:30;6.30;99.90
49777;DHT22;35673;51.482;7.436;2023-02-01T17:16:56;6.10;99.90
49777;DHT22;35673;51.482;7.436;2023-02-01T17:19:22;5.90;99.90
49777;DHT22;35673;51.482;7.436;2023-02-01T17:21:49;5.80;99.90
49777;DHT22;35673;51.482;7.436;2023-02-01T17:24:17;5.60;99.90
49777;DHT22;35673;51.482;7.436;2023-02-01T17:26:43;5.40;99.90
49777;DHT22;35673;51.482;7.436;2023-02-01T17:29:09;5.40;99.90
49777;DHT22;35673;51.482;7.436;2023-02-01T17:31:36;5.30;99.90
49777;DHT22;35673;51.482;7.436;2023-02-01T17:34:02;5.30;99.90
49777;DHT22;35673;51.482;7.436;2023-02-01T17:36:28;5.30;99.90
49777;DHT22;35673;51.482;7.436;2023-02-01T17:38:53;5.30;99.90
49777;DHT22;35673;51.482;7.436;2023-02-01T17:41:19;5.20;99.90
49777;DHT22;35673;51.482;7.436;2023-02-01T17:43:44;5.20;99.90
49777;DHT22;35673;51.482;7.436;2023-02-01T17:46:14;5.20;99.90